sensor_id;sensor_type;location;lat;lon;timestamp;pressure;altitude;pressure_sealevel;temperature;humidity
70589;BME280;58152;49.202;18.744;2023-06-04T00:01:19;97637.75;;;15.55;41.74
70589;BME280;58152;49.202;18.744;2023-06-04T00:03:44;97655.03;;;15.61;41.70
70589;BME280;58152;49.202;18.744;2023-06-04T00:06:09;97650.88;;;15.57;42.14
70589;BME280;58152;49.202;18.744;2023-06-04T00:08:35;97654.00;;;15.49;42.10
70589;BME280;58152;49.202;18.744;2023-06-04T00:11:00;97653.22;;;15.47;42.09
70589;BME280;58152;49.202;18.744;2023-06-04T00:13:26;97656.03;;;15.44;42.21
70589;BME280;58152;49.202;18.744;2023-06-04T00:15:51;97639.31;;;15.29;42.67
70589;BME280;58152;49.202;18.744;2023-06-04T00:18:17;97651.50;;;15.32;42.61
70589;BME280;58152;49.202;18.744;2023-06-04T00:20:42;97643.75;;;15.29;42.68
70589;BME280;58152;49.202;18.744;2023-06-04T00:23:07;97649.03;;;15.29;42.54
70589;BME280;58152;49.202;18.744;2023-06-04T00:25:33;97638.53;;;15.13;42.97
70589;BME280;58152;49.202;18.744;2023-06-04T00:27:58;97644.16;;;15.07;42.89
70589;BME280;58152;49.202;18.744;2023-06-04T00:30:24;97638.25;;;15.03;42.91
70589;BME280;58152;49.202;18.744;2023-06-04T00:32:49;97635.59;;;15.03;43.03
70589;BME280;58152;49.202;18.744;2023-06-04T00:35:14;97639.09;;;15.04;43.21
70589;BME280;58152;49.202;18.744;2023-06-04T00:37:40;97640.78;;;15.05;42.76
70589;BME280;58152;49.202;18.744;2023-06-04T00:40:06;97642.66;;;15.03;43.24
70589;BME280;58152;49.202;18.744;2023-06-04T00:42:31;97637.56;;;14.99;43.22
70589;BME280;58152;49.202;18.744;2023-06-04T00:44:58;97642.06;;;14.97;43.17
70589;BME280;58152;49.202;18.744;2023-06-04T00:47:23;97645.81;;;14.93;43.12
70589;BME280;58152;49.202;18.744;2023-06-04T00:49:49;97638.16;;;14.89;43.26
70589;BME280;58152;49.202;18.744;2023-06-04T00:52:15;97642.69;;;14.87;43.58
70589;BME280;58152;49.202;18.744;2023-06-04T00:54:41;97640.31;;;14.82;43.42
70589;BME280;58152;49.202;18.744;2023-06-04T00:57:06;97636.84;;;14.82;43.52
70589;BME280;58152;49.202;18.744;2023-06-04T00:59:35;97641.34;;;14.80;43.85
70589;BME280;58152;49.202;18.744;2023-06-04T01:02:09;97649.63;;;14.73;43.90
70589;BME280;58152;49.202;18.744;2023-06-04T01:05:01;97645.38;;;14.71;44.06
70589;BME280;58152;49.202;18.744;2023-06-04T01:07:28;97639.69;;;14.63;44.06
70589;BME280;58152;49.202;18.744;2023-06-04T01:09:55;97641.06;;;14.54;43.89
70589;BME280;58152;49.202;18.744;2023-06-04T01:12:23;97628.22;;;14.48;44.11
70589;BME280;58152;49.202;18.744;2023-06-04T01:14:49;97640.28;;;14.52;44.28
70589;BME280;58152;49.202;18.744;2023-06-04T01:17:20;97633.53;;;14.46;44.32
70589;BME280;58152;49.202;18.744;2023-06-04T01:22:46;97638.78;;;14.48;45.52
70589;BME280;58152;49.202;18.744;2023-06-04T01:25:20;97638.38;;;14.38;44.87
70589;BME280;58152;49.202;18.744;2023-06-04T01:27:50;97629.22;;;14.30;44.45
70589;BME280;58152;49.202;18.744;2023-06-04T01:30:25;97632.19;;;14.23;44.67
70589;BME280;58152;49.202;18.744;2023-06-04T01:32:53;97628.69;;;14.23;45.23
70589;BME280;58152;49.202;18.744;2023-06-04T01:35:20;97628.09;;;14.18;44.75
70589;BME280;58152;49.202;18.744;2023-06-04T01:37:46;97631.59;;;14.18;45.05
70589;BME280;58152;49.202;18.744;2023-06-04T01:40:11;97632.25;;;14.06;45.18
70589;BME280;58152;49.202;18.744;2023-06-04T01:42:37;97638.97;;;13.96;45.77
70589;BME280;58152;49.202;18.744;2023-06-04T01:45:03;97645.34;;;13.92;45.22
70589;BME280;58152;49.202;18.744;2023-06-04T01:47:28;97647.47;;;13.85;45.72
70589;BME280;58152;49.202;18.744;2023-06-04T01:49:54;97652.66;;;13.87;45.45
70589;BME280;58152;49.202;18.744;2023-06-04T01:52:19;97643.91;;;13.86;44.96
70589;BME280;58152;49.202;18.744;2023-06-04T01:54:46;97636.69;;;13.90;45.06
70589;BME280;58152;49.202;18.744;2023-06-04T01:57:14;97636.69;;;13.90;45.31
70589;BME280;58152;49.202;18.744;2023-06-04T01:59:39;97636.94;;;13.85;45.49
70589;BME280;58152;49.202;18.744;2023-06-04T02:02:07;97634.53;;;13.81;45.22
70589;BME280;58152;49.202;18.744;2023-06-04T02:04:32;97639.81;;;13.81;45.76
70589;BME280;58152;49.202;18.744;2023-06-04T02:07:02;97642.25;;;13.68;45.45
70589;BME280;58152;49.202;18.744;2023-06-04T02:09:27;97638.06;;;13.64;45.98
70589;BME280;58152;49.202;18.744;2023-06-04T02:11:53;97640.00;;;13.60;46.07
70589;BME280;58152;49.202;18.744;2023-06-04T02:14:21;97650.56;;;13.60;45.96
70589;BME280;58152;49.202;18.744;2023-06-04T02:16:47;97639.72;;;13.49;46.62
70589;BME280;58152;49.202;18.744;2023-06-04T02:19:15;97633.25;;;13.39;46.15
70589;BME280;58152;49.202;18.744;2023-06-04T02:21:40;97648.88;;;13.42;46.47
70589;BME280;58152;49.202;18.744;2023-06-04T02:24:05;97644.88;;;13.35;46.00
70589;BME280;58152;49.202;18.744;2023-06-04T02:26:31;97650.00;;;13.38;46.76
70589;BME280;58152;49.202;18.744;2023-06-04T02:28:57;97643.25;;;13.32;46.61
70589;BME280;58152;49.202;18.744;2023-06-04T02:31:22;97645.13;;;13.30;46.40
70589;BME280;58152;49.202;18.744;2023-06-04T02:33:48;97648.75;;;13.28;46.63
70589;BME280;58152;49.202;18.744;2023-06-04T02:36:13;97643.66;;;13.25;46.76
70589;BME280;58152;49.202;18.744;2023-06-04T02:38:40;97652.41;;;13.25;46.79
70589;BME280;58152;49.202;18.744;2023-06-04T02:41:08;97643.91;;;13.18;46.99
70589;BME280;58152;49.202;18.744;2023-06-04T02:43:33;97661.97;;;13.09;47.05
70589;BME280;58152;49.202;18.744;2023-06-04T02:45:59;97649.75;;;13.08;47.16
70589;BME280;58152;49.202;18.744;2023-06-04T02:48:24;97655.09;;;13.06;47.10
70589;BME280;58152;49.202;18.744;2023-06-04T02:50:50;97662.16;;;13.06;47.04
70589;BME280;58152;49.202;18.744;2023-06-04T02:53:15;97654.31;;;13.04;47.22
70589;BME280;58152;49.202;18.744;2023-06-04T02:55:40;97652.84;;;12.98;47.21
70589;BME280;58152;49.202;18.744;2023-06-04T02:58:07;97654.75;;;12.95;47.42
70589;BME280;58152;49.202;18.744;2023-06-04T03:00:34;97654.00;;;12.93;47.18
70589;BME280;58152;49.202;18.744;2023-06-04T03:03:00;97657.47;;;12.93;47.63
70589;BME280;58152;49.202;18.744;2023-06-04T03:05:29;97651.59;;;12.88;47.19
70589;BME280;58152;49.202;18.744;2023-06-04T03:07:58;97651.75;;;12.85;47.85
70589;BME280;58152;49.202;18.744;2023-06-04T03:10:24;97656.06;;;12.86;47.78
70589;BME280;58152;49.202;18.744;2023-06-04T03:12:50;97655.44;;;12.81;48.16
70589;BME280;58152;49.202;18.744;2023-06-04T03:15:16;97660.72;;;12.81;47.65
70589;BME280;58152;49.202;18.744;2023-06-04T03:17:41;97651.34;;;12.76;48.21
70589;BME280;58152;49.202;18.744;2023-06-04T03:20:07;97658.63;;;12.70;47.59
70589;BME280;58152;49.202;18.744;2023-06-04T03:22:34;97655.94;;;12.53;47.72
70589;BME280;58152;49.202;18.744;2023-06-04T03:25:01;97667.47;;;12.51;48.23
70589;BME280;58152;49.202;18.744;2023-06-04T03:27:27;97670.19;;;12.49;48.36
70589;BME280;58152;49.202;18.744;2023-06-04T03:29:52;97664.41;;;12.41;48.52
70589;BME280;58152;49.202;18.744;2023-06-04T03:32:18;97660.44;;;12.32;48.51
70589;BME280;58152;49.202;18.744;2023-06-04T03:34:43;97667.13;;;12.39;48.26
70589;BME280;58152;49.202;18.744;2023-06-04T03:37:09;97678.66;;;12.37;48.55
70589;BME280;58152;49.202;18.744;2023-06-04T03:39:35;97686.63;;;12.35;49.05
70589;BME280;58152;49.202;18.744;2023-06-04T03:42:01;97685.41;;;12.42;48.08
70589;BME280;58152;49.202;18.744;2023-06-04T03:44:29;97687.41;;;12.37;49.19
70589;BME280;58152;49.202;18.744;2023-06-04T03:46:55;97690.50;;;12.28;48.81
70589;BME280;58152;49.202;18.744;2023-06-04T03:49:20;97685.44;;;12.24;48.91
70589;BME280;58152;49.202;18.744;2023-06-04T03:51:47;97688.72;;;12.29;48.43
70589;BME280;58152;49.202;18.744;2023-06-04T03:54:14;97688.53;;;12.32;48.97
70589;BME280;58152;49.202;18.744;2023-06-04T03:56:44;97700.56;;;12.37;49.05
70589;BME280;58152;49.202;18.744;2023-06-04T03:59:10;97698.72;;;12.39;48.79
70589;BME280;58152;49.202;18.744;2023-06-04T04:01:36;97687.25;;;12.40;49.24
70589;BME280;58152;49.202;18.744;2023-06-04T04:04:01;97701.22;;;12.42;48.38
70589;BME280;58152;49.202;18.744;2023-06-04T04:06:27;97704.69;;;12.43;48.84
70589;BME280;58152;49.202;18.744;2023-06-04T04:08:52;97693.81;;;12.32;48.98
70589;BME280;58152;49.202;18.744;2023-06-04T04:11:18;97703.47;;;12.31;48.86
70589;BME280;58152;49.202;18.744;2023-06-04T04:13:45;97696.66;;;12.27;49.42
70589;BME280;58152;49.202;18.744;2023-06-04T04:16:10;97715.56;;;12.35;49.03
70589;BME280;58152;49.202;18.744;2023-06-04T04:18:37;97701.66;;;12.33;48.64
70589;BME280;58152;49.202;18.744;2023-06-04T04:21:04;97709.16;;;12.41;48.75
70589;BME280;58152;49.202;18.744;2023-06-04T04:23:30;97697.78;;;12.40;49.08
70589;BME280;58152;49.202;18.744;2023-06-04T04:25:58;97711.53;;;12.47;49.18
70589;BME280;58152;49.202;18.744;2023-06-04T04:28:24;97704.47;;;12.48;48.49
70589;BME280;58152;49.202;18.744;2023-06-04T04:30:54;97693.22;;;12.44;48.67
70589;BME280;58152;49.202;18.744;2023-06-04T04:33:19;97702.78;;;12.46;48.64
70589;BME280;58152;49.202;18.744;2023-06-04T04:35:45;97700.19;;;12.45;49.16
70589;BME280;58152;49.202;18.744;2023-06-04T04:38:10;97710.59;;;12.48;48.80
70589;BME280;58152;49.202;18.744;2023-06-04T04:40:37;97708.88;;;12.47;48.62
70589;BME280;58152;49.202;18.744;2023-06-04T04:43:02;97709.66;;;12.49;48.54
70589;BME280;58152;49.202;18.744;2023-06-04T04:45:28;97703.47;;;12.50;48.50
70589;BME280;58152;49.202;18.744;2023-06-04T04:47:53;97693.31;;;12.42;48.51
70589;BME280;58152;49.202;18.744;2023-06-04T04:50:18;97691.31;;;12.48;48.98
70589;BME280;58152;49.202;18.744;2023-06-04T04:52:44;97694.88;;;12.46;48.58
70589;BME280;58152;49.202;18.744;2023-06-04T04:55:09;97706.19;;;12.49;48.96
70589;BME280;58152;49.202;18.744;2023-06-04T04:57:38;97701.63;;;12.52;49.69
70589;BME280;58152;49.202;18.744;2023-06-04T05:00:04;97707.66;;;12.54;49.80
70589;BME280;58152;49.202;18.744;2023-06-04T05:02:37;97697.34;;;12.50;49.39
70589;BME280;58152;49.202;18.744;2023-06-04T05:05:03;97707.59;;;12.56;49.78
70589;BME280;58152;49.202;18.744;2023-06-04T05:07:29;97692.03;;;12.51;49.43
70589;BME280;58152;49.202;18.744;2023-06-04T05:09:55;97701.53;;;12.54;49.34
70589;BME280;58152;49.202;18.744;2023-06-04T05:12:20;97697.34;;;12.50;49.04
70589;BME280;58152;49.202;18.744;2023-06-04T05:14:46;97699.03;;;12.51;49.46
70589;BME280;58152;49.202;18.744;2023-06-04T05:17:11;97694.50;;;12.54;49.70
70589;BME280;58152;49.202;18.744;2023-06-04T05:19:38;97695.50;;;12.52;49.51
70589;BME280;58152;49.202;18.744;2023-06-04T05:22:04;97702.34;;;12.56;49.71
70589;BME280;58152;49.202;18.744;2023-06-04T05:24:31;97703.19;;;12.56;50.13
70589;BME280;58152;49.202;18.744;2023-06-04T05:26:58;97704.25;;;12.52;49.88
70589;BME280;58152;49.202;18.744;2023-06-04T05:29:23;97704.97;;;12.56;49.49
70589;BME280;58152;49.202;18.744;2023-06-04T05:31:49;97700.59;;;12.55;50.17
70589;BME280;58152;49.202;18.744;2023-06-04T05:34:15;97697.75;;;12.59;49.88
70589;BME280;58152;49.202;18.744;2023-06-04T05:36:42;97702.88;;;12.62;49.90
70589;BME280;58152;49.202;18.744;2023-06-04T05:39:09;97707.22;;;12.63;49.76
70589;BME280;58152;49.202;18.744;2023-06-04T05:41:35;97708.06;;;12.64;50.41
70589;BME280;58152;49.202;18.744;2023-06-04T05:44:01;97704.59;;;12.63;50.07
70589;BME280;58152;49.202;18.744;2023-06-04T05:46:27;97701.91;;;12.65;50.48
70589;BME280;58152;49.202;18.744;2023-06-04T05:48:52;97706.22;;;12.66;50.25
70589;BME280;58152;49.202;18.744;2023-06-04T05:51:19;97694.84;;;12.65;50.07
70589;BME280;58152;49.202;18.744;2023-06-04T05:53:44;97700.88;;;12.67;50.19
70589;BME280;58152;49.202;18.744;2023-06-04T05:56:10;97705.16;;;12.70;50.15
70589;BME280;58152;49.202;18.744;2023-06-04T05:58:35;97704.84;;;12.76;49.71
70589;BME280;58152;49.202;18.744;2023-06-04T06:01:01;97703.88;;;12.79;49.97
70589;BME280;58152;49.202;18.744;2023-06-04T06:03:26;97703.06;;;12.77;49.61
70589;BME280;58152;49.202;18.744;2023-06-04T06:05:55;97710.53;;;12.86;49.99
70589;BME280;58152;49.202;18.744;2023-06-04T06:08:22;97695.78;;;12.82;49.69
70589;BME280;58152;49.202;18.744;2023-06-04T06:10:47;97699.06;;;12.87;49.88
70589;BME280;58152;49.202;18.744;2023-06-04T06:13:13;97704.09;;;12.91;49.84
70589;BME280;58152;49.202;18.744;2023-06-04T06:15:38;97705.81;;;12.92;49.81
70589;BME280;58152;49.202;18.744;2023-06-04T06:20:49;97702.16;;;12.95;49.69
70589;BME280;58152;49.202;18.744;2023-06-04T06:23:14;97703.81;;;12.97;49.68
70589;BME280;58152;49.202;18.744;2023-06-04T06:25:45;97696.75;;;12.98;49.84
70589;BME280;58152;49.202;18.744;2023-06-04T06:28:11;97689.72;;;12.98;49.71
70589;BME280;58152;49.202;18.744;2023-06-04T06:30:37;97704.34;;;13.04;49.70
70589;BME280;58152;49.202;18.744;2023-06-04T06:33:02;97704.91;;;13.11;49.60
70589;BME280;58152;49.202;18.744;2023-06-04T06:35:29;97695.50;;;13.05;49.98
70589;BME280;58152;49.202;18.744;2023-06-04T06:37:55;97701.34;;;13.12;50.08
70589;BME280;58152;49.202;18.744;2023-06-04T06:40:20;97703.13;;;13.11;50.03
70589;BME280;58152;49.202;18.744;2023-06-04T06:42:49;97704.59;;;13.17;49.90
70589;BME280;58152;49.202;18.744;2023-06-04T06:45:40;97700.19;;;13.17;49.55
70589;BME280;58152;49.202;18.744;2023-06-04T06:48:06;97692.34;;;13.16;50.33
70589;BME280;58152;49.202;18.744;2023-06-04T06:50:43;97704.50;;;13.18;50.46
70589;BME280;58152;49.202;18.744;2023-06-04T06:53:14;97700.03;;;13.20;50.01
70589;BME280;58152;49.202;18.744;2023-06-04T06:55:43;97709.34;;;13.28;49.95
70589;BME280;58152;49.202;18.744;2023-06-04T06:58:09;97693.72;;;13.25;50.25
70589;BME280;58152;49.202;18.744;2023-06-04T07:00:35;97700.53;;;13.29;50.47
70589;BME280;58152;49.202;18.744;2023-06-04T07:03:00;97701.91;;;13.36;50.52
70589;BME280;58152;49.202;18.744;2023-06-04T07:05:25;97709.81;;;13.36;50.18
70589;BME280;58152;49.202;18.744;2023-06-04T07:07:51;97699.97;;;13.39;50.43
70589;BME280;58152;49.202;18.744;2023-06-04T07:10:17;97703.38;;;13.41;50.17
70589;BME280;58152;49.202;18.744;2023-06-04T07:12:42;97701.59;;;13.42;50.46
70589;BME280;58152;49.202;18.744;2023-06-04T07:15:08;97697.88;;;13.46;49.86
70589;BME280;58152;49.202;18.744;2023-06-04T07:17:36;97697.56;;;13.52;50.21
70589;BME280;58152;49.202;18.744;2023-06-04T07:20:03;97693.91;;;13.55;50.47
70589;BME280;58152;49.202;18.744;2023-06-04T07:22:33;97700.63;;;13.60;50.55
70589;BME280;58152;49.202;18.744;2023-06-04T07:24:59;97696.91;;;13.64;50.20
70589;BME280;58152;49.202;18.744;2023-06-04T07:27:24;97700.25;;;13.68;50.20
70589;BME280;58152;49.202;18.744;2023-06-04T07:29:51;97683.59;;;13.67;50.13
70589;BME280;58152;49.202;18.744;2023-06-04T07:32:17;97692.25;;;13.69;50.18
70589;BME280;58152;49.202;18.744;2023-06-04T07:34:42;97684.97;;;13.75;50.17
70589;BME280;58152;49.202;18.744;2023-06-04T07:37:08;97684.78;;;13.78;50.24
70589;BME280;58152;49.202;18.744;2023-06-04T07:39:34;97684.56;;;13.82;49.90
70589;BME280;58152;49.202;18.744;2023-06-04T07:42:04;97682.50;;;13.87;50.37
70589;BME280;58152;49.202;18.744;2023-06-04T07:44:36;97694.31;;;13.97;50.90
70589;BME280;58152;49.202;18.744;2023-06-04T07:47:02;97686.38;;;13.97;50.61
70589;BME280;58152;49.202;18.744;2023-06-04T07:49:28;97685.00;;;14.06;50.94
70589;BME280;58152;49.202;18.744;2023-06-04T07:51:53;97681.88;;;14.15;50.70
70589;BME280;58152;49.202;18.744;2023-06-04T07:54:19;97682.56;;;14.19;51.07
70589;BME280;58152;49.202;18.744;2023-06-04T07:56:49;97681.56;;;14.21;51.19
70589;BME280;58152;49.202;18.744;2023-06-04T07:59:20;97689.97;;;14.28;53.05
70589;BME280;58152;49.202;18.744;2023-06-04T08:01:46;97684.09;;;14.23;50.93
70589;BME280;58152;49.202;18.744;2023-06-04T08:04:11;97682.91;;;14.29;50.56
70589;BME280;58152;49.202;18.744;2023-06-04T08:06:37;97682.84;;;14.30;50.66
70589;BME280;58152;49.202;18.744;2023-06-04T08:09:04;97686.00;;;14.37;50.39
70589;BME280;58152;49.202;18.744;2023-06-04T08:11:40;97688.28;;;14.43;50.63
70589;BME280;58152;49.202;18.744;2023-06-04T08:14:06;97686.41;;;14.45;50.78
70589;BME280;58152;49.202;18.744;2023-06-04T08:16:41;97674.06;;;14.45;50.36
70589;BME280;58152;49.202;18.744;2023-06-04T08:19:21;97675.78;;;14.46;49.92
70589;BME280;58152;49.202;18.744;2023-06-04T08:21:48;97682.25;;;14.57;49.49
70589;BME280;58152;49.202;18.744;2023-06-04T08:24:14;97689.00;;;14.62;49.29
70589;BME280;58152;49.202;18.744;2023-06-04T08:26:39;97692.94;;;14.71;48.75
70589;BME280;58152;49.202;18.744;2023-06-04T08:29:07;97679.72;;;14.71;48.80
70589;BME280;58152;49.202;18.744;2023-06-04T08:31:36;97687.19;;;14.79;48.69
70589;BME280;58152;49.202;18.744;2023-06-04T08:34:01;97678.31;;;14.80;48.39
70589;BME280;58152;49.202;18.744;2023-06-04T08:36:30;97685.72;;;14.89;48.35
70589;BME280;58152;49.202;18.744;2023-06-04T08:38:58;97685.72;;;14.89;48.21
70589;BME280;58152;49.202;18.744;2023-06-04T08:41:29;97692.84;;;15.03;48.25
70589;BME280;58152;49.202;18.744;2023-06-04T08:43:58;97679.00;;;14.99;48.26
70589;BME280;58152;49.202;18.744;2023-06-04T08:46:31;97681.94;;;15.09;47.32
70589;BME280;58152;49.202;18.744;2023-06-04T08:49:06;97688.38;;;15.19;47.65
70589;BME280;58152;49.202;18.744;2023-06-04T08:51:52;97683.19;;;15.17;47.03
70589;BME280;58152;49.202;18.744;2023-06-04T08:54:18;97689.63;;;15.28;47.04
70589;BME280;58152;49.202;18.744;2023-06-04T08:56:47;97681.44;;;15.32;46.71
70589;BME280;58152;49.202;18.744;2023-06-04T08:59:26;97692.22;;;15.43;46.56
70589;BME280;58152;49.202;18.744;2023-06-04T09:01:53;97690.34;;;15.45;46.17
70589;BME280;58152;49.202;18.744;2023-06-04T09:04:19;97688.28;;;15.50;46.02
70589;BME280;58152;49.202;18.744;2023-06-04T09:06:46;97692.44;;;15.55;46.16
70589;BME280;58152;49.202;18.744;2023-06-04T09:09:13;97695.47;;;15.63;45.73
70589;BME280;58152;49.202;18.744;2023-06-04T09:11:56;97690.03;;;15.66;45.93
70589;BME280;58152;49.202;18.744;2023-06-04T09:14:31;97689.16;;;15.65;46.09
70589;BME280;58152;49.202;18.744;2023-06-04T09:17:00;97689.38;;;15.77;46.65
70589;BME280;58152;49.202;18.744;2023-06-04T09:19:25;97681.19;;;15.81;45.51
70589;BME280;58152;49.202;18.744;2023-06-04T09:31:25;97677.47;;;16.12;45.45
70589;BME280;58152;49.202;18.744;2023-06-04T09:33:52;97675.47;;;16.16;45.81
70589;BME280;58152;49.202;18.744;2023-06-04T09:36:17;97673.50;;;16.19;46.11
70589;BME280;58152;49.202;18.744;2023-06-04T09:38:46;97672.19;;;16.26;46.07
70589;BME280;58152;49.202;18.744;2023-06-04T09:41:26;97681.31;;;16.35;44.90
70589;BME280;58152;49.202;18.744;2023-06-04T09:44:04;97674.78;;;16.41;45.21
70589;BME280;58152;49.202;18.744;2023-06-04T09:46:59;97671.94;;;16.44;44.58
70589;BME280;58152;49.202;18.744;2023-06-04T09:49:25;97678.13;;;16.57;44.57
70589;BME280;58152;49.202;18.744;2023-06-04T09:51:58;97667.53;;;16.57;44.64
70589;BME280;58152;49.202;18.744;2023-06-04T09:54:35;97678.38;;;16.67;44.25
70589;BME280;58152;49.202;18.744;2023-06-04T09:57:02;97672.91;;;16.70;44.32
70589;BME280;58152;49.202;18.744;2023-06-04T09:59:32;97678.78;;;16.75;44.23
70589;BME280;58152;49.202;18.744;2023-06-04T10:02:22;97663.53;;;16.79;43.91
70589;BME280;58152;49.202;18.744;2023-06-04T10:08:11;97655.22;;;16.97;44.10
70589;BME280;58152;49.202;18.744;2023-06-04T10:18:09;97664.00;;;17.38;43.90
70589;BME280;58152;49.202;18.744;2023-06-04T10:45:53;97670.19;;;18.15;41.74
70589;BME280;58152;49.202;18.744;2023-06-04T10:48:32;97661.59;;;18.11;42.58
70589;BME280;58152;49.202;18.744;2023-06-04T10:51:00;97659.25;;;18.19;42.53
70589;BME280;58152;49.202;18.744;2023-06-04T10:53:45;97658.03;;;18.23;42.33
70589;BME280;58152;49.202;18.744;2023-06-04T10:56:27;97670.75;;;18.44;42.33
70589;BME280;58152;49.202;18.744;2023-06-04T10:58:59;97658.53;;;18.41;42.55
70589;BME280;58152;49.202;18.744;2023-06-04T11:01:35;97664.13;;;18.62;42.36
70589;BME280;58152;49.202;18.744;2023-06-04T11:04:25;97658.91;;;18.97;43.15
70589;BME280;58152;49.202;18.744;2023-06-04T11:07:03;97653.97;;;19.50;42.26
70589;BME280;58152;49.202;18.744;2023-06-04T11:09:30;97658.91;;;19.90;41.63
70589;BME280;58152;49.202;18.744;2023-06-04T11:11:59;97668.81;;;19.88;40.63
70589;BME280;58152;49.202;18.744;2023-06-04T11:17:53;97666.06;;;20.01;39.54
70589;BME280;58152;49.202;18.744;2023-06-04T11:20:22;97655.16;;;19.82;40.13
70589;BME280;58152;49.202;18.744;2023-06-04T11:22:52;97665.31;;;19.76;39.79
70589;BME280;58152;49.202;18.744;2023-06-04T11:25:57;97650.31;;;19.75;39.24
70589;BME280;58152;49.202;18.744;2023-06-04T11:28:24;97652.22;;;19.73;39.89
70589;BME280;58152;49.202;18.744;2023-06-04T11:31:00;97656.59;;;19.74;39.42
70589;BME280;58152;49.202;18.744;2023-06-04T11:33:28;97655.88;;;19.72;39.62
70589;BME280;58152;49.202;18.744;2023-06-04T11:36:02;97658.53;;;19.72;39.63
70589;BME280;58152;49.202;18.744;2023-06-04T11:39:10;97650.19;;;19.66;38.62
70589;BME280;58152;49.202;18.744;2023-06-04T11:41:41;97659.00;;;19.66;40.05
70589;BME280;58152;49.202;18.744;2023-06-04T11:44:07;97657.06;;;19.68;39.76
70589;BME280;58152;49.202;18.744;2023-06-04T11:46:33;97666.28;;;19.75;40.35
70589;BME280;58152;49.202;18.744;2023-06-04T11:48:59;97653.69;;;19.77;40.52
70589;BME280;58152;49.202;18.744;2023-06-04T11:51:25;97658.06;;;19.90;40.16
70589;BME280;58152;49.202;18.744;2023-06-04T11:53:51;97661.69;;;20.00;39.65
70589;BME280;58152;49.202;18.744;2023-06-04T11:56:17;97655.41;;;20.12;39.66
70589;BME280;58152;49.202;18.744;2023-06-04T11:58:43;97652.84;;;20.33;39.20
70589;BME280;58152;49.202;18.744;2023-06-04T12:01:12;97659.63;;;20.37;39.10
70589;BME280;58152;49.202;18.744;2023-06-04T12:03:42;97651.25;;;20.42;38.74
70589;BME280;58152;49.202;18.744;2023-06-04T12:06:18;97650.03;;;20.46;38.67
70589;BME280;58152;49.202;18.744;2023-06-04T12:08:55;97655.50;;;20.55;38.43
70589;BME280;58152;49.202;18.744;2023-06-04T12:11:31;97655.88;;;20.62;38.26
70589;BME280;58152;49.202;18.744;2023-06-04T12:14:06;97654.44;;;20.58;37.28
70589;BME280;58152;49.202;18.744;2023-06-04T12:16:33;97664.09;;;20.59;38.27
70589;BME280;58152;49.202;18.744;2023-06-04T12:19:09;97656.25;;;20.58;38.21
70589;BME280;58152;49.202;18.744;2023-06-04T12:21:36;97655.63;;;20.54;38.62
70589;BME280;58152;49.202;18.744;2023-06-04T12:24:12;97659.28;;;20.53;37.77
70589;BME280;58152;49.202;18.744;2023-06-04T12:26:40;97669.69;;;20.56;38.06
70589;BME280;58152;49.202;18.744;2023-06-04T12:29:11;97670.88;;;20.52;38.09
70589;BME280;58152;49.202;18.744;2023-06-04T12:31:48;97656.47;;;20.54;37.68
70589;BME280;58152;49.202;18.744;2023-06-04T12:34:15;97658.78;;;20.48;38.03
70589;BME280;58152;49.202;18.744;2023-06-04T12:36:40;97660.13;;;20.53;38.12
70589;BME280;58152;49.202;18.744;2023-06-04T12:39:08;97652.50;;;20.49;37.86
70589;BME280;58152;49.202;18.744;2023-06-04T12:41:34;97660.84;;;20.55;38.30
70589;BME280;58152;49.202;18.744;2023-06-04T12:44:00;97659.00;;;20.56;37.81
70589;BME280;58152;49.202;18.744;2023-06-04T12:46:27;97656.25;;;20.58;38.33
70589;BME280;58152;49.202;18.744;2023-06-04T12:48:57;97659.63;;;20.60;38.01
70589;BME280;58152;49.202;18.744;2023-06-04T12:51:23;97658.78;;;20.59;37.72
70589;BME280;58152;49.202;18.744;2023-06-04T12:53:49;97654.44;;;20.58;38.10
70589;BME280;58152;49.202;18.744;2023-06-04T12:56:14;97663.13;;;20.60;38.02
70589;BME280;58152;49.202;18.744;2023-06-04T12:58:41;97661.53;;;20.69;38.04
70589;BME280;58152;49.202;18.744;2023-06-04T13:01:06;97666.25;;;20.76;37.67
70589;BME280;58152;49.202;18.744;2023-06-04T13:03:33;97658.81;;;20.80;37.67
70589;BME280;58152;49.202;18.744;2023-06-04T13:05:59;97661.00;;;20.86;37.36
70589;BME280;58152;49.202;18.744;2023-06-04T13:08:24;97669.94;;;20.96;37.56
70589;BME280;58152;49.202;18.744;2023-06-04T13:10:51;97664.38;;;20.99;37.58
70589;BME280;58152;49.202;18.744;2023-06-04T13:13:19;97657.66;;;21.05;37.50
70589;BME280;58152;49.202;18.744;2023-06-04T13:15:45;97662.38;;;21.13;37.54
70589;BME280;58152;49.202;18.744;2023-06-04T13:18:11;97662.56;;;21.21;37.79
70589;BME280;58152;49.202;18.744;2023-06-04T13:20:37;97661.22;;;21.26;37.60
70589;BME280;58152;49.202;18.744;2023-06-04T13:23:05;97657.44;;;21.29;37.13
70589;BME280;58152;49.202;18.744;2023-06-04T13:25:30;97659.63;;;21.35;37.33
70589;BME280;58152;49.202;18.744;2023-06-04T13:28:01;97654.66;;;21.30;37.24
70589;BME280;58152;49.202;18.744;2023-06-04T13:30:30;97659.50;;;21.37;36.79
70589;BME280;58152;49.202;18.744;2023-06-04T13:32:58;97648.38;;;21.31;36.96
70589;BME280;58152;49.202;18.744;2023-06-04T13:35:24;97654.31;;;21.35;37.16
70589;BME280;58152;49.202;18.744;2023-06-04T13:37:53;97650.06;;;21.33;37.25
70589;BME280;58152;49.202;18.744;2023-06-04T13:40:18;97642.19;;;21.31;37.17
70589;BME280;58152;49.202;18.744;2023-06-04T13:42:45;97656.44;;;21.41;37.17
70589;BME280;58152;49.202;18.744;2023-06-04T13:45:11;97659.09;;;21.41;37.39
70589;BME280;58152;49.202;18.744;2023-06-04T13:47:36;97650.72;;;21.46;37.14
70589;BME280;58152;49.202;18.744;2023-06-04T13:50:02;97640.03;;;21.46;37.22